createdAt,value
2023-01-21T00:01:53.886Z,-0.48
2023-01-21T00:04:57.139Z,-0.38
2023-01-21T00:08:02.463Z,-0.45
2023-01-21T00:11:11.532Z,-0.35
2023-01-21T00:14:14.471Z,-0.35
2023-01-21T00:17:17.671Z,-0.33
2023-01-21T00:20:21.916Z,-0.31
2023-01-21T00:23:25.374Z,-0.24
2023-01-21T00:26:28.894Z,-0.21
2023-01-21T00:29:32.157Z,-0.18
2023-01-21T00:32:35.077Z,-0.11
2023-01-21T00:35:38.283Z,-0.06
2023-01-21T00:38:41.256Z,-0.07
2023-01-21T00:41:44.529Z,-0.14
2023-01-21T00:44:47.437Z,-0.19
2023-01-21T00:47:50.740Z,-0.39
2023-01-21T00:50:56.071Z,-0.27
2023-01-21T00:53:59.349Z,-0.17
2023-01-21T00:57:02.558Z,-0.44
2023-01-21T01:00:11.144Z,-0.29
2023-01-21T01:03:14.177Z,-0.21
2023-01-21T01:06:22.196Z,-0.09
2023-01-21T01:09:25.375Z,-0.13
2023-01-21T01:12:29.544Z,-0.47
2023-01-21T01:15:32.796Z,-0.56
2023-01-21T01:18:37.953Z,-0.37
2023-01-21T01:21:40.877Z,-0.53
2023-01-21T01:24:45.244Z,-0.37
2023-01-21T01:27:48.282Z,-0.54
2023-01-21T01:30:51.914Z,-0.54
2023-01-21T01:33:54.960Z,-0.51
2023-01-21T01:36:58.275Z,-0.53
2023-01-21T01:40:01.209Z,-0.54
2023-01-21T01:43:12.562Z,-0.55
2023-01-21T01:46:15.689Z,-0.53
2023-01-21T01:49:21.512Z,-0.65
2023-01-21T01:52:25.021Z,-0.46
2023-01-21T01:55:34.114Z,-0.40
2023-01-21T01:58:38.166Z,-0.31
2023-01-21T02:01:41.633Z,-0.37
2023-01-21T02:04:48.906Z,-0.51
2023-01-21T02:07:52.169Z,-0.54
2023-01-21T02:10:56.519Z,-0.49
2023-01-21T02:14:00.387Z,-0.54
2023-01-21T02:17:21.667Z,-0.55
2023-01-21T02:20:34.118Z,-0.60
2023-01-21T02:23:49.910Z,-0.48
2023-01-21T02:27:05.319Z,-0.36
2023-01-21T02:30:42.347Z,-0.50
2023-01-21T02:34:05.169Z,-0.37
2023-01-21T02:37:19.097Z,-0.25
2023-01-21T02:40:31.775Z,-0.36
2023-01-21T02:44:17.654Z,-0.29
2023-01-21T02:47:31.297Z,-0.49
2023-01-21T02:50:37.287Z,-0.46
2023-01-21T02:53:40.584Z,-0.38
2023-01-21T02:56:43.939Z,-0.25
2023-01-21T02:59:50.244Z,-0.31
2023-01-21T03:03:12.640Z,-0.19
2023-01-21T03:06:39.173Z,-0.19
2023-01-21T03:09:42.229Z,-0.33
2023-01-21T03:12:55.525Z,-0.24
2023-01-21T03:16:17.480Z,-0.19
2023-01-21T03:19:22.141Z,-0.25
2023-01-21T03:22:27.397Z,-0.20
2023-01-21T03:25:32.465Z,-0.19
2023-01-21T03:28:41.583Z,-0.22
2023-01-21T03:31:47.995Z,-0.15
2023-01-21T03:34:52.695Z,-0.29
2023-01-21T03:37:58.165Z,-0.13
2023-01-21T03:41:11.561Z,-0.15
2023-01-21T03:44:14.915Z,-0.15
2023-01-21T03:47:23.858Z,-0.18
2023-01-21T03:50:33.121Z,-0.06
2023-01-21T03:53:36.073Z,-0.01
2023-01-21T03:56:39.388Z,0.03
2023-01-21T03:59:42.506Z,-0.02
2023-01-21T04:02:45.788Z,0.03
2023-01-21T04:05:48.983Z,0.07
2023-01-21T04:08:51.915Z,-0.01
2023-01-21T04:11:55.181Z,0.02
2023-01-21T04:14:59.241Z,0.06
2023-01-21T04:18:02.487Z,-0.06
2023-01-21T04:21:05.992Z,0.01
2023-01-21T04:24:09.470Z,-0.07
2023-01-21T04:27:12.525Z,-0.05
2023-01-21T04:30:16.496Z,0.02
2023-01-21T04:33:19.600Z,-0.02
2023-01-21T04:36:22.842Z,-0.10
2023-01-21T04:39:25.913Z,-0.06
2023-01-21T04:42:29.317Z,-0.12
2023-01-21T04:45:32.266Z,-0.05
2023-01-21T04:48:35.479Z,-0.16
2023-01-21T04:51:38.881Z,-0.07
2023-01-21T04:54:42.160Z,-0.08
2023-01-21T04:57:46.542Z,-0.06
2023-01-21T05:00:50.031Z,-0.15
2023-01-21T05:03:53.732Z,-0.09
2023-01-21T05:06:57.107Z,-0.07
2023-01-21T05:09:59.999Z,0.00
2023-01-21T05:13:03.571Z,0.01
2023-01-21T05:16:10.051Z,0.05
2023-01-21T05:19:13.393Z,-0.01
2023-01-21T05:22:16.806Z,0.02
2023-01-21T05:25:20.055Z,0.06
2023-01-21T05:28:23.136Z,0.02
2023-01-21T05:31:26.460Z,0.05
2023-01-21T05:34:29.425Z,0.06
2023-01-21T05:37:32.731Z,-0.01
2023-01-21T05:40:35.786Z,-0.16
2023-01-21T05:43:40.259Z,-0.10
2023-01-21T05:46:43.163Z,-0.06
2023-01-21T05:49:47.862Z,-0.06
2023-01-21T05:52:50.795Z,-0.13
2023-01-21T05:55:54.915Z,-0.03
2023-01-21T05:58:58.080Z,0.01
2023-01-21T06:02:01.362Z,0.03
2023-01-21T06:05:04.858Z,0.06
2023-01-21T06:08:08.664Z,0.14
2023-01-21T06:11:11.983Z,0.04
2023-01-21T06:14:15.070Z,-0.04
2023-01-21T06:17:18.376Z,-0.01
2023-01-21T06:20:21.483Z,-0.05
2023-01-21T06:23:24.796Z,-0.05
2023-01-21T06:26:28.774Z,-0.11
2023-01-21T06:29:32.044Z,-0.22
2023-01-21T06:32:35.854Z,-0.10
2023-01-21T06:35:40.522Z,-0.04
2023-01-21T06:38:43.468Z,-0.10
2023-01-21T06:41:46.663Z,-0.08
2023-01-21T06:44:49.702Z,-0.06
2023-01-21T06:47:53.031Z,0.10
2023-01-21T06:50:56.125Z,0.12
2023-01-21T06:53:59.481Z,0.13
2023-01-21T06:57:02.545Z,0.10
2023-01-21T07:00:08.746Z,0.16
2023-01-21T07:03:11.820Z,0.26
2023-01-21T07:06:15.559Z,0.32
2023-01-21T07:09:18.784Z,0.25
2023-01-21T07:12:22.114Z,0.21
2023-01-21T07:15:25.081Z,0.07
2023-01-21T07:18:29.173Z,0.22
2023-01-21T07:21:32.226Z,0.17
2023-01-21T07:24:35.961Z,0.28
2023-01-21T07:27:39.022Z,0.43
2023-01-21T07:30:42.418Z,0.45
2023-01-21T07:33:45.370Z,0.50
2023-01-21T07:36:48.677Z,0.59
2023-01-21T07:39:54.400Z,0.66
2023-01-21T07:42:58.133Z,0.73
2023-01-21T07:46:01.229Z,0.84
2023-01-21T07:49:04.535Z,0.88
2023-01-21T07:52:07.603Z,0.78
2023-01-21T07:55:12.610Z,0.82
2023-01-21T07:58:15.785Z,0.92
2023-01-21T08:01:19.082Z,0.93
2023-01-21T08:04:22.551Z,0.92
2023-01-21T08:07:25.823Z,0.93
2023-01-21T08:10:29.416Z,0.99
2023-01-21T08:13:32.327Z,0.98
2023-01-21T08:16:35.657Z,0.90
2023-01-21T08:19:38.641Z,0.90
2023-01-21T08:22:41.939Z,0.71
2023-01-21T08:25:44.872Z,0.61
2023-01-21T08:28:48.228Z,0.65
2023-01-21T08:31:52.398Z,0.65
2023-01-21T08:34:55.652Z,0.75
2023-01-21T08:37:58.710Z,0.81
2023-01-21T08:41:03.165Z,0.78
2023-01-21T08:44:06.414Z,0.83
2023-01-21T08:47:10.130Z,0.89
2023-01-21T08:50:13.384Z,0.85
2023-01-21T08:53:16.414Z,0.94
2023-01-21T08:56:19.433Z,0.88
2023-01-21T08:59:28.856Z,0.97
2023-01-21T09:02:31.841Z,0.99
2023-01-21T09:05:35.146Z,1.00
2023-01-21T09:08:38.160Z,1.10
2023-01-21T09:11:42.432Z,1.14
2023-01-21T09:14:45.419Z,1.17
2023-01-21T09:17:48.667Z,1.21
2023-01-21T09:20:51.712Z,1.23
2023-01-21T09:23:55.468Z,1.30
2023-01-21T09:26:58.381Z,1.33
2023-01-21T09:30:02.601Z,1.39
2023-01-21T09:33:05.500Z,1.43
2023-01-21T09:36:13.465Z,1.41
2023-01-21T09:39:16.400Z,1.47
2023-01-21T09:42:22.308Z,1.58
2023-01-21T09:45:26.018Z,1.59
2023-01-21T09:48:34.318Z,1.59
2023-01-21T09:51:48.923Z,1.71
2023-01-21T09:54:54.494Z,1.78
2023-01-21T09:58:18.992Z,1.83
2023-01-21T10:01:32.018Z,1.93
2023-01-21T10:04:38.508Z,2.02
2023-01-21T10:07:53.875Z,2.21
2023-01-21T10:11:03.002Z,2.38
2023-01-21T10:14:23.892Z,2.52
2023-01-21T10:17:37.492Z,2.61
2023-01-21T10:20:51.198Z,2.59
2023-01-21T10:23:57.667Z,2.63
2023-01-21T10:27:00.995Z,2.40
2023-01-21T10:30:25.364Z,2.28
2023-01-21T10:33:31.733Z,2.18
2023-01-21T10:36:41.072Z,2.06
2023-01-21T10:40:04.693Z,2.01
2023-01-21T10:43:24.414Z,2.06
2023-01-21T10:46:40.373Z,2.08
2023-01-21T10:49:52.817Z,1.59
2023-01-21T10:53:07.227Z,1.76
2023-01-21T10:56:34.168Z,1.75
2023-01-21T10:59:37.883Z,1.69
2023-01-21T11:02:41.481Z,1.81
2023-01-21T11:05:45.106Z,1.90
2023-01-21T11:08:56.090Z,2.04
2023-01-21T11:12:01.062Z,2.17
2023-01-21T11:15:23.853Z,2.10
2023-01-21T11:18:37.025Z,2.18
2023-01-21T11:21:40.647Z,2.29
2023-01-21T11:24:48.823Z,2.42
2023-01-21T11:27:52.237Z,2.41
2023-01-21T11:31:21.229Z,2.13
2023-01-21T11:34:24.538Z,1.97
2023-01-21T11:37:29.162Z,1.82
2023-01-21T11:40:32.421Z,1.82
2023-01-21T11:43:47.806Z,1.76
2023-01-21T11:46:51.240Z,1.93
2023-01-21T11:49:54.046Z,1.67
2023-01-21T11:53:17.785Z,1.85
2023-01-21T11:56:21.138Z,1.93
2023-01-21T11:59:27.486Z,1.46
2023-01-21T12:02:33.859Z,1.64
2023-01-21T12:05:41.179Z,1.87
2023-01-21T12:08:46.076Z,1.77
2023-01-21T12:12:09.140Z,1.90
2023-01-21T12:15:33.453Z,1.91
2023-01-21T12:18:44.948Z,1.83
2023-01-21T12:21:50.817Z,1.97
2023-01-21T12:25:06.973Z,1.74
2023-01-21T12:28:35.186Z,1.87
2023-01-21T12:31:53.117Z,2.10
2023-01-21T12:35:03.602Z,2.17
2023-01-21T12:38:10.436Z,2.00
2023-01-21T12:41:17.533Z,2.17
2023-01-21T12:44:38.496Z,2.10
2023-01-21T12:48:06.119Z,2.03
2023-01-21T12:51:14.605Z,2.39
2023-01-21T12:54:38.302Z,2.57
2023-01-21T12:57:47.490Z,2.61
2023-01-21T13:00:53.051Z,2.60
2023-01-21T13:04:03.281Z,2.82
2023-01-21T13:07:31.258Z,2.76
2023-01-21T13:10:36.621Z,2.61
2023-01-21T13:13:43.307Z,2.66
2023-01-21T13:16:56.201Z,2.69
2023-01-21T13:20:00.627Z,2.64
2023-01-21T13:23:22.111Z,2.79
2023-01-21T13:26:36.188Z,2.69
2023-01-21T13:29:52.431Z,2.59
2023-01-21T13:33:34.212Z,2.65
2023-01-21T13:36:40.124Z,2.60
2023-01-21T13:39:51.534Z,2.58
2023-01-21T13:43:37.339Z,2.54
2023-01-21T13:46:47.476Z,2.53
2023-01-21T13:50:18.993Z,2.51
2023-01-21T13:53:39.513Z,2.51
2023-01-21T13:56:50.144Z,2.48
2023-01-21T13:59:54.396Z,2.34
2023-01-21T14:03:19.833Z,2.40
2023-01-21T14:06:25.238Z,2.39
2023-01-21T14:09:38.413Z,2.44
2023-01-21T14:13:23.666Z,2.39
2023-01-21T14:16:54.370Z,2.38
2023-01-21T14:20:00.498Z,2.41
2023-01-21T14:23:30.380Z,2.40
2023-01-21T14:27:02.950Z,2.39
2023-01-21T14:30:10.119Z,2.39
2023-01-21T14:33:23.395Z,2.35
2023-01-21T14:36:57.435Z,2.37
2023-01-21T14:40:13.665Z,2.38
2023-01-21T14:43:42.625Z,2.40
2023-01-21T14:47:16.104Z,2.39
2023-01-21T14:50:54.908Z,2.36
2023-01-21T14:54:01.535Z,2.31
2023-01-21T14:57:18.117Z,2.34
2023-01-21T15:00:30.242Z,2.31
2023-01-21T15:03:46.548Z,2.26
2023-01-21T15:06:53.386Z,2.20
2023-01-21T15:09:59.443Z,2.15
2023-01-21T15:13:06.077Z,2.15
2023-01-21T15:16:33.261Z,2.09
2023-01-21T15:19:38.258Z,2.02
2023-01-21T15:22:41.665Z,2.01
2023-01-21T15:26:08.378Z,1.94
2023-01-21T15:30:00.619Z,1.91
2023-01-21T15:33:04.031Z,1.86
2023-01-21T15:36:34.881Z,1.88
2023-01-21T15:39:38.533Z,1.84
2023-01-21T15:42:53.594Z,1.80
2023-01-21T15:46:31.530Z,1.76
2023-01-21T15:49:43.531Z,1.78
2023-01-21T15:52:54.233Z,1.66
2023-01-21T15:56:35.337Z,1.69
2023-01-21T16:00:11.031Z,1.66
2023-01-21T16:03:37.127Z,1.65
2023-01-21T16:07:03.158Z,1.64
2023-01-21T16:10:21.865Z,1.61
2023-01-21T16:13:24.919Z,1.58
2023-01-21T16:16:54.789Z,1.52
2023-01-21T16:20:00.678Z,1.45
2023-01-21T16:23:07.132Z,1.40
2023-01-21T16:26:10.442Z,1.37
2023-01-21T16:29:16.027Z,1.31
2023-01-21T16:32:20.992Z,1.33
2023-01-21T16:35:26.630Z,1.35
2023-01-21T16:38:32.231Z,1.38
2023-01-21T16:41:40.339Z,1.42
2023-01-21T16:44:44.307Z,1.44
2023-01-21T16:47:57.113Z,1.41
2023-01-21T16:51:02.251Z,1.38
2023-01-21T16:54:25.097Z,1.35
2023-01-21T16:57:32.306Z,1.34
2023-01-21T17:00:36.307Z,1.33
2023-01-21T17:03:39.687Z,1.31
2023-01-21T17:06:44.814Z,1.29
2023-01-21T17:10:01.220Z,1.24
2023-01-21T17:13:08.206Z,1.24
2023-01-21T17:16:33.497Z,1.24
2023-01-21T17:19:39.383Z,1.23
2023-01-21T17:22:44.675Z,1.24
2023-01-21T17:26:15.340Z,1.25
2023-01-21T17:29:27.738Z,1.27
2023-01-21T17:32:35.175Z,1.26
2023-01-21T17:36:05.522Z,1.23
2023-01-21T17:39:11.156Z,1.25
2023-01-21T17:42:22.783Z,1.22
2023-01-21T17:45:29.998Z,1.17
2023-01-21T17:48:37.616Z,1.18
2023-01-21T17:51:44.526Z,1.13
2023-01-21T17:54:49.246Z,1.10
2023-01-21T17:57:54.611Z,1.09
2023-01-21T18:01:02.666Z,1.09
2023-01-21T18:04:07.911Z,1.06
2023-01-21T18:07:32.273Z,1.09
2023-01-21T18:10:38.109Z,1.10
2023-01-21T18:13:41.682Z,1.09
2023-01-21T18:16:46.280Z,1.11
2023-01-21T18:19:50.293Z,1.12
2023-01-21T18:22:56.445Z,1.11
2023-01-21T18:25:59.422Z,1.08
2023-01-21T18:29:04.462Z,1.07
2023-01-21T18:32:17.035Z,1.06
2023-01-21T18:35:27.658Z,1.04
2023-01-21T18:38:33.929Z,1.06
2023-01-21T18:41:38.166Z,1.06
2023-01-21T18:44:42.546Z,1.07
2023-01-21T18:47:47.639Z,1.11
2023-01-21T18:50:51.457Z,1.07
2023-01-21T18:53:55.121Z,1.09
2023-01-21T18:56:59.876Z,1.17
2023-01-21T19:00:06.665Z,1.17
2023-01-21T19:03:15.186Z,1.17
2023-01-21T19:06:19.966Z,1.18
2023-01-21T19:09:26.002Z,1.19
2023-01-21T19:12:30.308Z,1.26
2023-01-21T19:15:33.728Z,1.23
2023-01-21T19:18:37.863Z,1.27
2023-01-21T19:21:44.038Z,1.26
2023-01-21T19:24:49.630Z,1.27
2023-01-21T19:27:56.362Z,1.31
2023-01-21T19:31:01.117Z,1.24
2023-01-21T19:34:04.981Z,1.32
2023-01-21T19:37:28.630Z,1.37
2023-01-21T19:40:33.496Z,1.34
2023-01-21T19:43:39.203Z,1.37
2023-01-21T19:46:45.376Z,1.33
2023-01-21T19:49:53.443Z,1.34
2023-01-21T19:52:58.671Z,1.29
2023-01-21T19:56:05.681Z,1.31
2023-01-21T19:59:13.620Z,1.25
2023-01-21T20:02:18.511Z,1.25
2023-01-21T20:05:24.270Z,1.24
2023-01-21T20:08:30.980Z,1.27
2023-01-21T20:11:35.629Z,1.29
2023-01-21T20:14:40.022Z,1.28
2023-01-21T20:17:53.903Z,1.26
2023-01-21T20:21:01.756Z,1.21
2023-01-21T20:24:12.045Z,1.22
2023-01-21T20:27:16.621Z,1.25
2023-01-21T20:30:27.236Z,1.26
2023-01-21T20:33:32.164Z,1.22
2023-01-21T20:36:38.385Z,1.27
2023-01-21T20:39:43.351Z,1.31
2023-01-21T20:42:49.435Z,1.31
2023-01-21T20:45:54.503Z,1.37
2023-01-21T20:49:00.439Z,1.36
2023-01-21T20:52:06.007Z,1.40
2023-01-21T20:55:12.964Z,1.38
2023-01-21T20:58:18.651Z,1.32
2023-01-21T21:01:25.771Z,1.26
2023-01-21T21:04:30.230Z,1.18
2023-01-21T21:07:34.884Z,1.30
2023-01-21T21:10:39.745Z,1.38
2023-01-21T21:13:47.239Z,1.39
2023-01-21T21:16:51.937Z,1.45
2023-01-21T21:19:58.133Z,1.44
2023-01-21T21:23:02.747Z,1.46
2023-01-21T21:26:15.984Z,1.38
2023-01-21T21:29:19.312Z,1.40
2023-01-21T21:32:23.423Z,1.43
2023-01-21T21:35:31.070Z,1.39
2023-01-21T21:38:35.343Z,1.44
2023-01-21T21:41:58.459Z,1.47
2023-01-21T21:45:02.002Z,1.46
2023-01-21T21:48:23.822Z,1.41
2023-01-21T21:51:28.582Z,1.45
2023-01-21T21:54:32.196Z,1.46
2023-01-21T21:57:35.614Z,1.50
2023-01-21T22:00:40.527Z,1.45
2023-01-21T22:03:44.078Z,1.40
2023-01-21T22:06:47.596Z,1.43
2023-01-21T22:09:50.831Z,1.39
2023-01-21T22:12:54.031Z,1.41
2023-01-21T22:15:59.253Z,1.45
2023-01-21T22:19:02.378Z,1.41
2023-01-21T22:22:05.817Z,1.37
2023-01-21T22:25:13.231Z,1.31
2023-01-21T22:28:17.817Z,1.39
2023-01-21T22:31:23.451Z,1.44
2023-01-21T22:34:26.759Z,1.38
2023-01-21T22:37:29.776Z,1.29
2023-01-21T22:40:35.199Z,1.38
2023-01-21T22:43:39.668Z,1.41
2023-01-21T22:46:42.674Z,1.41
2023-01-21T22:49:45.605Z,1.43
2023-01-21T22:52:48.537Z,1.46
2023-01-21T22:55:58.168Z,1.45
2023-01-21T22:59:01.368Z,1.47
2023-01-21T23:02:04.344Z,1.42
2023-01-21T23:05:08.572Z,1.44
2023-01-21T23:08:13.583Z,1.42
2023-01-21T23:11:19.164Z,1.43
2023-01-21T23:14:22.301Z,1.44
2023-01-21T23:17:26.383Z,1.42
2023-01-21T23:20:29.326Z,1.47
2023-01-21T23:23:35.893Z,1.28
2023-01-21T23:26:38.976Z,1.38
2023-01-21T23:29:42.220Z,1.40
2023-01-21T23:32:45.270Z,1.46
2023-01-21T23:35:55.558Z,1.44
2023-01-21T23:38:58.456Z,1.53
2023-01-21T23:42:01.613Z,1.52
2023-01-21T23:45:04.924Z,1.57
2023-01-21T23:48:08.148Z,1.54
2023-01-21T23:51:13.440Z,1.47
2023-01-21T23:54:16.762Z,1.48
2023-01-21T23:57:20.129Z,1.43
